This is the latest recevied weather packets stored in our database for station/object DL6MM-4. If no packets are shown the sender has not sent any weather packets the latest 10 day(s).
| Time | Temp. | Humidity | Pressure | Rain* | Wind** | Luminosity | Snow |
|---|---|---|---|---|---|---|---|
| 1777703955 | 18.33° C | 59% | 1019.7 hPa | 0 mm | - | - | - |
| 1777703355 | 18.33° C | 61% | 1019.7 hPa | 0 mm | - | - | - |
| 1777702755 | 17.22° C | 65% | 1019.7 hPa | 0 mm | - | - | - |
| 1777702155 | 16.11° C | 66% | 1019.7 hPa | 0 mm | - | - | - |
| 1777701555 | 15° C | 70% | 1019.9 hPa | 0 mm | - | - | - |
| 1777700955 | 13.89° C | 73% | 1019.9 hPa | 0 mm | - | - | - |
| 1777700355 | 13.33° C | 72% | 1020 hPa | 0 mm | - | - | - |
| 1777699755 | 13.33° C | 72% | 1020 hPa | 0 mm | - | - | - |
| 1777699155 | 11.67° C | 77% | 1020 hPa | 0 mm | - | - | - |
| 1777698555 | 10.56° C | 81% | 1020.1 hPa | 0 mm | - | - | - |
| 1777697955 | 8.89° C | 84% | 1020.2 hPa | 0 mm | - | - | - |
| 1777697355 | 8.33° C | 84% | 1020.2 hPa | 0 mm | - | - | - |
| 1777696755 | 7.78° C | 86% | 1020.2 hPa | 0 mm | - | - | - |
| 1777696155 | 6.67° C | 85% | 1020.2 hPa | 0 mm | - | - | - |
| 1777695555 | 6.67° C | 86% | 1020.2 hPa | 0 mm | - | - | - |
| 1777694955 | 6.67° C | 85% | 1020.2 hPa | 0 mm | - | - | - |
| 1777694355 | 6.67° C | 86% | 1020.2 hPa | 0 mm | - | - | - |
| 1777693755 | 6.67° C | 85% | 1020.2 hPa | 0 mm | - | - | - |
| 1777693155 | 6.67° C | 86% | 1020.2 hPa | 0 mm | - | - | - |
| 1777692555 | 6.11° C | 85% | 1020.4 hPa | 0 mm | - | - | - |
| 1777691955 | 6.67° C | 86% | 1020.5 hPa | 0 mm | - | - | - |
| 1777691355 | 6.11° C | 85% | 1020.6 hPa | 0 mm | - | - | - |
| 1777690755 | 6.67° C | 84% | 1020.5 hPa | 0 mm | - | - | - |
| 1777690155 | 7.22° C | 82% | 1020.6 hPa | 0 mm | - | - | - |
| 1777689555 | 8.33° C | 81% | 1020.6 hPa | 0 mm | - | - | - |
* Rain latest hour (hover to see other rain measurements)
** Current wind speed in m/s (hover to see current wind gust speed)